METAR ET TAF INFORMATION
METAR FOR KRDK
ADDS - METARS form results

(1503 UTC 20 May 2019)
Data provider http://aviationweather.gov/metar/data/
 
METAR text: KRDK 201455Z AUTO 04009KT 10SM OVC018 08/04 A3016 RMK AO2
Conditions at: KRDK (RED OAK , IA, US) observed 1455 UTC 20 May 2019
Temperature: 8.0°C (46°F)
Dewpoint: 4.0°C (39°F) [RH = 76%]
Pressure (altimeter): 30.16 inches Hg (1021.4 mb)
Winds: from the NE (40 degrees) at 10 MPH (9 knots; 4.6 m/s)
Visibility: 10 or more miles (16+ km)
Ceiling: 1800 feet AGL
Clouds: overcast cloud deck at 1800 feet AGL
Weather: automated observation with no human augmentation;
there may or may not be significant weather present at this time

METAR text: KRDK 201435Z AUTO 06008KT 10SM OVC018 07/04 A3018 RMK AO2
Conditions at: KRDK (RED OAK , IA, US) observed 1435 UTC 20 May 2019
Temperature: 7.0°C (45°F)
Dewpoint: 4.0°C (39°F) [RH = 81%]
Pressure (altimeter): 30.18 inches Hg (1022.1 mb)
Winds: from the ENE (60 degrees) at 9 MPH (8 knots; 4.1 m/s)
Visibility: 10 or more miles (16+ km)
Ceiling: 1800 feet AGL
Clouds: overcast cloud deck at 1800 feet AGL
Weather: automated observation with no human augmentation;
there may or may not be significant weather present at this time

METAR text: KRDK 201415Z AUTO 08010KT 10SM OVC018 07/04 A3019 RMK AO2
Conditions at: KRDK (RED OAK , IA, US) observed 1415 UTC 20 May 2019
Temperature: 7.0°C (45°F)
Dewpoint: 4.0°C (39°F) [RH = 81%]
Pressure (altimeter): 30.19 inches Hg (1022.4 mb)
Winds: from the E (80 degrees) at 12 MPH (10 knots; 5.1 m/s)
Visibility: 10 or more miles (16+ km)
Ceiling: 1800 feet AGL
Clouds: overcast cloud deck at 1800 feet AGL
Weather: automated observation with no human augmentation;
there may or may not be significant weather present at this time

 AÉROPORT DE AÉROPORT

 INFORMATIONS DE PISTE
Piste 05 Longueur de la piste 4100 ft Largeur de la piste 75 ft
Élévation de la piste 1042 ft Seuil de la piste déplacés 0 ft Runway heading 58
Piste 23 Longueur de la piste 4100 ft Largeur de la piste 75 ft
Élévation de la piste 1043 ft Seuil de la piste déplacés 0 ft Runway heading 238
Piste 14 Longueur de la piste 2050 ft Largeur de la piste 210 ft
Élévation de la piste 1042 ft Seuil de la piste déplacés 0 ft Runway heading 142
Piste 32 Longueur de la piste 2050 ft Largeur de la piste 210 ft
Élévation de la piste 1039 ft Seuil de la piste déplacés 0 ft Runway heading 322
Piste 17 Longueur de la piste 2901 ft Largeur de la piste 60 ft
Élévation de la piste 1044 ft Seuil de la piste déplacés 0 ft Runway heading 174
Piste 35 Longueur de la piste 2901 ft Largeur de la piste 60 ft
Élévation de la piste 1038 ft Seuil de la piste déplacés 0 ft Runway heading 354

 AÉROPORT FRÉQUENCES
Type A/D Nom OMAHA APP/ Féquence 124.5 MHZ
Type AWOS Nom AWOS 3 Féquence 119.775 MHZ
Type UNIC Nom CTAF/UNICO Féquence 122.8 MHZ

 SIDA DE NAVIGATION



Powered by Virtual Airlines Manager [v2.6.2]